sensor_id;sensor_type;location;lat;lon;timestamp;P1;durP1;ratioP1;P2;durP2;ratioP2
41719;SDS011;27405;53.316;-6.294;2023-07-13T00:02:14;10.60;;;2.40;;
41719;SDS011;27405;53.316;-6.294;2023-07-13T00:04:40;12.70;;;3.42;;
41719;SDS011;27405;53.316;-6.294;2023-07-13T00:07:07;15.60;;;3.20;;
41719;SDS011;27405;53.316;-6.294;2023-07-13T00:09:33;12.75;;;2.90;;
41719;SDS011;27405;53.316;-6.294;2023-07-13T00:12:00;11.98;;;2.60;;
41719;SDS011;27405;53.316;-6.294;2023-07-13T00:14:28;18.02;;;2.80;;
41719;SDS011;27405;53.316;-6.294;2023-07-13T00:16:54;11.93;;;3.00;;
41719;SDS011;27405;53.316;-6.294;2023-07-13T00:19:20;16.13;;;3.10;;
41719;SDS011;27405;53.316;-6.294;2023-07-13T00:21:46;15.05;;;3.35;;
41719;SDS011;27405;53.316;-6.294;2023-07-13T00:24:13;13.80;;;2.80;;
41719;SDS011;27405;53.316;-6.294;2023-07-13T00:26:48;13.27;;;2.55;;
41719;SDS011;27405;53.316;-6.294;2023-07-13T00:29:14;14.45;;;2.90;;
41719;SDS011;27405;53.316;-6.294;2023-07-13T00:31:41;12.82;;;2.38;;
41719;SDS011;27405;53.316;-6.294;2023-07-13T00:34:07;13.60;;;2.60;;
41719;SDS011;27405;53.316;-6.294;2023-07-13T00:36:33;17.92;;;2.95;;
41719;SDS011;27405;53.316;-6.294;2023-07-13T00:38:59;14.30;;;2.63;;
41719;SDS011;27405;53.316;-6.294;2023-07-13T00:41:24;12.57;;;2.50;;
41719;SDS011;27405;53.316;-6.294;2023-07-13T00:43:51;11.57;;;2.60;;
41719;SDS011;27405;53.316;-6.294;2023-07-13T00:46:24;11.32;;;3.05;;
41719;SDS011;27405;53.316;-6.294;2023-07-13T00:48:56;18.45;;;2.90;;
41719;SDS011;27405;53.316;-6.294;2023-07-13T00:51:37;18.15;;;2.92;;
41719;SDS011;27405;53.316;-6.294;2023-07-13T00:54:08;20.42;;;3.13;;
41719;SDS011;27405;53.316;-6.294;2023-07-13T00:56:36;13.70;;;2.75;;
41719;SDS011;27405;53.316;-6.294;2023-07-13T00:59:02;17.88;;;2.72;;
41719;SDS011;27405;53.316;-6.294;2023-07-13T01:01:31;19.20;;;3.05;;
41719;SDS011;27405;53.316;-6.294;2023-07-13T01:03:57;17.40;;;2.72;;
41719;SDS011;27405;53.316;-6.294;2023-07-13T01:06:23;14.80;;;3.10;;
41719;SDS011;27405;53.316;-6.294;2023-07-13T01:08:49;17.02;;;3.05;;
41719;SDS011;27405;53.316;-6.294;2023-07-13T01:11:18;13.50;;;2.80;;
41719;SDS011;27405;53.316;-6.294;2023-07-13T01:13:46;14.05;;;2.92;;
41719;SDS011;27405;53.316;-6.294;2023-07-13T01:16:13;10.32;;;2.75;;
41719;SDS011;27405;53.316;-6.294;2023-07-13T01:18:44;23.55;;;3.10;;
41719;SDS011;27405;53.316;-6.294;2023-07-13T01:21:10;12.30;;;2.65;;
41719;SDS011;27405;53.316;-6.294;2023-07-13T01:23:35;16.15;;;3.30;;
41719;SDS011;27405;53.316;-6.294;2023-07-13T01:26:01;19.08;;;3.15;;
41719;SDS011;27405;53.316;-6.294;2023-07-13T01:28:28;21.08;;;3.20;;
41719;SDS011;27405;53.316;-6.294;2023-07-13T01:30:54;14.02;;;2.90;;
41719;SDS011;27405;53.316;-6.294;2023-07-13T01:35:49;16.83;;;2.80;;
41719;SDS011;27405;53.316;-6.294;2023-07-13T01:38:15;11.90;;;2.47;;
41719;SDS011;27405;53.316;-6.294;2023-07-13T01:40:42;13.13;;;3.05;;
41719;SDS011;27405;53.316;-6.294;2023-07-13T01:43:08;9.90;;;2.38;;
41719;SDS011;27405;53.316;-6.294;2023-07-13T01:45:34;12.75;;;2.50;;
41719;SDS011;27405;53.316;-6.294;2023-07-13T01:48:00;10.63;;;2.58;;
41719;SDS011;27405;53.316;-6.294;2023-07-13T01:50:26;12.88;;;2.97;;
41719;SDS011;27405;53.316;-6.294;2023-07-13T01:52:52;15.80;;;3.05;;
41719;SDS011;27405;53.316;-6.294;2023-07-13T01:55:18;12.98;;;2.90;;
41719;SDS011;27405;53.316;-6.294;2023-07-13T01:57:45;11.57;;;2.45;;
41719;SDS011;27405;53.316;-6.294;2023-07-13T02:00:12;16.75;;;2.95;;
41719;SDS011;27405;53.316;-6.294;2023-07-13T02:02:38;12.90;;;2.75;;
41719;SDS011;27405;53.316;-6.294;2023-07-13T02:05:04;10.82;;;2.50;;
41719;SDS011;27405;53.316;-6.294;2023-07-13T02:07:31;15.65;;;2.90;;
41719;SDS011;27405;53.316;-6.294;2023-07-13T02:09:56;13.55;;;2.78;;
41719;SDS011;27405;53.316;-6.294;2023-07-13T02:12:22;15.07;;;2.95;;
41719;SDS011;27405;53.316;-6.294;2023-07-13T02:14:48;13.02;;;2.70;;
41719;SDS011;27405;53.316;-6.294;2023-07-13T02:17:14;15.48;;;3.03;;
41719;SDS011;27405;53.316;-6.294;2023-07-13T02:19:39;12.93;;;2.65;;
41719;SDS011;27405;53.316;-6.294;2023-07-13T02:22:05;14.38;;;2.70;;
41719;SDS011;27405;53.316;-6.294;2023-07-13T02:24:31;13.43;;;3.13;;
41719;SDS011;27405;53.316;-6.294;2023-07-13T02:26:57;12.88;;;2.67;;
41719;SDS011;27405;53.316;-6.294;2023-07-13T02:29:23;11.55;;;2.83;;
41719;SDS011;27405;53.316;-6.294;2023-07-13T02:31:49;15.77;;;2.90;;
41719;SDS011;27405;53.316;-6.294;2023-07-13T02:34:14;13.40;;;2.95;;
41719;SDS011;27405;53.316;-6.294;2023-07-13T02:36:40;14.32;;;3.20;;
41719;SDS011;27405;53.316;-6.294;2023-07-13T02:39:06;15.80;;;2.80;;
41719;SDS011;27405;53.316;-6.294;2023-07-13T02:41:32;13.77;;;2.50;;
41719;SDS011;27405;53.316;-6.294;2023-07-13T02:43:58;10.38;;;2.30;;
41719;SDS011;27405;53.316;-6.294;2023-07-13T02:46:29;15.45;;;2.70;;
41719;SDS011;27405;53.316;-6.294;2023-07-13T02:48:55;11.18;;;2.53;;
41719;SDS011;27405;53.316;-6.294;2023-07-13T02:51:21;11.43;;;3.00;;
41719;SDS011;27405;53.316;-6.294;2023-07-13T02:53:47;12.02;;;2.83;;
41719;SDS011;27405;53.316;-6.294;2023-07-13T02:56:12;14.57;;;2.42;;
41719;SDS011;27405;53.316;-6.294;2023-07-13T02:58:38;11.50;;;2.60;;
41719;SDS011;27405;53.316;-6.294;2023-07-13T03:01:09;14.70;;;3.00;;
41719;SDS011;27405;53.316;-6.294;2023-07-13T03:03:36;10.93;;;2.65;;
41719;SDS011;27405;53.316;-6.294;2023-07-13T03:06:02;10.20;;;2.35;;
41719;SDS011;27405;53.316;-6.294;2023-07-13T03:08:31;11.73;;;2.65;;
41719;SDS011;27405;53.316;-6.294;2023-07-13T03:11:00;13.63;;;2.70;;
41719;SDS011;27405;53.316;-6.294;2023-07-13T03:13:27;16.10;;;3.38;;
41719;SDS011;27405;53.316;-6.294;2023-07-13T03:15:53;14.02;;;2.78;;
41719;SDS011;27405;53.316;-6.294;2023-07-13T03:18:18;12.50;;;2.90;;
41719;SDS011;27405;53.316;-6.294;2023-07-13T03:20:44;12.70;;;2.80;;
41719;SDS011;27405;53.316;-6.294;2023-07-13T03:23:10;15.65;;;2.95;;
41719;SDS011;27405;53.316;-6.294;2023-07-13T03:25:36;13.32;;;2.72;;
41719;SDS011;27405;53.316;-6.294;2023-07-13T03:28:01;15.55;;;3.63;;
41719;SDS011;27405;53.316;-6.294;2023-07-13T03:30:27;10.65;;;2.78;;
41719;SDS011;27405;53.316;-6.294;2023-07-13T03:32:53;16.90;;;2.78;;
41719;SDS011;27405;53.316;-6.294;2023-07-13T03:35:18;11.85;;;2.65;;
41719;SDS011;27405;53.316;-6.294;2023-07-13T03:37:44;13.73;;;3.05;;
41719;SDS011;27405;53.316;-6.294;2023-07-13T03:40:10;16.05;;;2.78;;
41719;SDS011;27405;53.316;-6.294;2023-07-13T03:42:37;12.57;;;2.97;;
41719;SDS011;27405;53.316;-6.294;2023-07-13T03:45:02;11.27;;;2.50;;
41719;SDS011;27405;53.316;-6.294;2023-07-13T03:47:28;13.27;;;2.72;;
41719;SDS011;27405;53.316;-6.294;2023-07-13T03:49:54;14.93;;;3.38;;
41719;SDS011;27405;53.316;-6.294;2023-07-13T03:52:19;13.23;;;2.83;;
41719;SDS011;27405;53.316;-6.294;2023-07-13T03:54:45;13.10;;;2.80;;
41719;SDS011;27405;53.316;-6.294;2023-07-13T03:57:11;13.15;;;2.72;;
41719;SDS011;27405;53.316;-6.294;2023-07-13T03:59:37;14.18;;;2.88;;
41719;SDS011;27405;53.316;-6.294;2023-07-13T04:02:02;18.13;;;3.22;;
41719;SDS011;27405;53.316;-6.294;2023-07-13T04:04:30;15.95;;;2.83;;
41719;SDS011;27405;53.316;-6.294;2023-07-13T04:06:56;16.40;;;3.38;;
41719;SDS011;27405;53.316;-6.294;2023-07-13T04:09:24;12.25;;;2.65;;
41719;SDS011;27405;53.316;-6.294;2023-07-13T04:11:50;15.65;;;2.72;;
41719;SDS011;27405;53.316;-6.294;2023-07-13T04:14:16;12.80;;;3.13;;
41719;SDS011;27405;53.316;-6.294;2023-07-13T04:16:42;16.65;;;3.20;;
41719;SDS011;27405;53.316;-6.294;2023-07-13T04:19:09;16.45;;;3.53;;
41719;SDS011;27405;53.316;-6.294;2023-07-13T04:21:35;12.60;;;2.58;;
41719;SDS011;27405;53.316;-6.294;2023-07-13T04:24:02;15.50;;;2.67;;
41719;SDS011;27405;53.316;-6.294;2023-07-13T04:26:29;17.42;;;2.72;;
41719;SDS011;27405;53.316;-6.294;2023-07-13T04:28:55;14.45;;;2.53;;
41719;SDS011;27405;53.316;-6.294;2023-07-13T04:31:21;10.10;;;2.38;;
41719;SDS011;27405;53.316;-6.294;2023-07-13T04:33:47;15.90;;;3.17;;
41719;SDS011;27405;53.316;-6.294;2023-07-13T04:36:14;17.08;;;3.13;;
41719;SDS011;27405;53.316;-6.294;2023-07-13T04:38:41;15.57;;;3.05;;
41719;SDS011;27405;53.316;-6.294;2023-07-13T04:41:07;17.20;;;3.55;;
41719;SDS011;27405;53.316;-6.294;2023-07-13T04:43:34;16.40;;;2.92;;
41719;SDS011;27405;53.316;-6.294;2023-07-13T04:46:03;13.25;;;2.90;;
41719;SDS011;27405;53.316;-6.294;2023-07-13T04:48:31;15.60;;;3.08;;
41719;SDS011;27405;53.316;-6.294;2023-07-13T04:50:57;14.13;;;3.25;;
41719;SDS011;27405;53.316;-6.294;2023-07-13T04:53:23;14.60;;;2.97;;
41719;SDS011;27405;53.316;-6.294;2023-07-13T04:55:49;16.38;;;3.03;;
41719;SDS011;27405;53.316;-6.294;2023-07-13T04:58:15;13.82;;;2.90;;
41719;SDS011;27405;53.316;-6.294;2023-07-13T05:00:42;15.52;;;2.80;;
41719;SDS011;27405;53.316;-6.294;2023-07-13T05:03:08;17.52;;;3.45;;
41719;SDS011;27405;53.316;-6.294;2023-07-13T05:05:33;15.98;;;3.00;;
41719;SDS011;27405;53.316;-6.294;2023-07-13T05:07:59;11.90;;;2.55;;
41719;SDS011;27405;53.316;-6.294;2023-07-13T05:10:25;17.23;;;3.00;;
41719;SDS011;27405;53.316;-6.294;2023-07-13T05:12:50;13.07;;;2.60;;
41719;SDS011;27405;53.316;-6.294;2023-07-13T05:15:16;13.20;;;2.65;;
41719;SDS011;27405;53.316;-6.294;2023-07-13T05:17:46;15.13;;;3.22;;
41719;SDS011;27405;53.316;-6.294;2023-07-13T05:22:41;15.40;;;3.03;;
41719;SDS011;27405;53.316;-6.294;2023-07-13T05:25:07;13.77;;;2.85;;
41719;SDS011;27405;53.316;-6.294;2023-07-13T05:27:33;15.32;;;2.90;;
41719;SDS011;27405;53.316;-6.294;2023-07-13T05:30:00;15.55;;;3.28;;
41719;SDS011;27405;53.316;-6.294;2023-07-13T05:32:26;10.55;;;2.50;;
41719;SDS011;27405;53.316;-6.294;2023-07-13T05:34:52;16.67;;;2.95;;
41719;SDS011;27405;53.316;-6.294;2023-07-13T05:37:18;17.88;;;3.33;;
41719;SDS011;27405;53.316;-6.294;2023-07-13T05:39:43;15.43;;;2.97;;
41719;SDS011;27405;53.316;-6.294;2023-07-13T05:42:09;14.30;;;3.20;;
41719;SDS011;27405;53.316;-6.294;2023-07-13T05:44:35;16.45;;;3.65;;
41719;SDS011;27405;53.316;-6.294;2023-07-13T05:47:01;20.25;;;3.15;;
41719;SDS011;27405;53.316;-6.294;2023-07-13T05:49:26;16.75;;;3.30;;
41719;SDS011;27405;53.316;-6.294;2023-07-13T05:51:52;13.07;;;2.88;;
41719;SDS011;27405;53.316;-6.294;2023-07-13T05:54:18;14.70;;;3.08;;
41719;SDS011;27405;53.316;-6.294;2023-07-13T05:56:43;16.23;;;3.00;;
41719;SDS011;27405;53.316;-6.294;2023-07-13T05:59:09;13.25;;;3.10;;
41719;SDS011;27405;53.316;-6.294;2023-07-13T06:01:35;13.75;;;2.88;;
41719;SDS011;27405;53.316;-6.294;2023-07-13T06:04:01;11.55;;;3.03;;
41719;SDS011;27405;53.316;-6.294;2023-07-13T06:06:26;14.73;;;2.83;;
41719;SDS011;27405;53.316;-6.294;2023-07-13T06:08:52;16.73;;;2.80;;
41719;SDS011;27405;53.316;-6.294;2023-07-13T06:11:19;13.23;;;3.20;;
41719;SDS011;27405;53.316;-6.294;2023-07-13T06:13:47;10.90;;;2.60;;
41719;SDS011;27405;53.316;-6.294;2023-07-13T06:16:13;19.92;;;2.88;;
41719;SDS011;27405;53.316;-6.294;2023-07-13T06:18:39;15.73;;;2.65;;
41719;SDS011;27405;53.316;-6.294;2023-07-13T06:21:10;14.10;;;2.70;;
41719;SDS011;27405;53.316;-6.294;2023-07-13T06:23:40;10.70;;;2.60;;
41719;SDS011;27405;53.316;-6.294;2023-07-13T06:26:07;18.95;;;3.10;;
41719;SDS011;27405;53.316;-6.294;2023-07-13T06:28:33;14.30;;;3.13;;
41719;SDS011;27405;53.316;-6.294;2023-07-13T06:31:00;18.70;;;3.45;;
41719;SDS011;27405;53.316;-6.294;2023-07-13T06:33:26;11.18;;;2.80;;
41719;SDS011;27405;53.316;-6.294;2023-07-13T06:35:52;18.73;;;3.92;;
41719;SDS011;27405;53.316;-6.294;2023-07-13T06:38:20;18.55;;;3.25;;
41719;SDS011;27405;53.316;-6.294;2023-07-13T06:40:45;15.23;;;3.33;;
41719;SDS011;27405;53.316;-6.294;2023-07-13T06:43:11;18.50;;;3.63;;
41719;SDS011;27405;53.316;-6.294;2023-07-13T06:45:44;17.45;;;3.00;;
41719;SDS011;27405;53.316;-6.294;2023-07-13T06:48:14;17.25;;;3.17;;
41719;SDS011;27405;53.316;-6.294;2023-07-13T06:53:07;15.90;;;3.00;;
41719;SDS011;27405;53.316;-6.294;2023-07-13T06:55:35;15.70;;;3.08;;
41719;SDS011;27405;53.316;-6.294;2023-07-13T06:58:01;15.60;;;3.33;;
41719;SDS011;27405;53.316;-6.294;2023-07-13T07:00:26;20.67;;;3.00;;
41719;SDS011;27405;53.316;-6.294;2023-07-13T07:02:52;17.38;;;3.38;;
41719;SDS011;27405;53.316;-6.294;2023-07-13T07:05:22;10.23;;;2.95;;
41719;SDS011;27405;53.316;-6.294;2023-07-13T07:07:49;10.10;;;2.65;;
41719;SDS011;27405;53.316;-6.294;2023-07-13T07:10:15;12.25;;;2.65;;
41719;SDS011;27405;53.316;-6.294;2023-07-13T07:12:43;13.40;;;2.97;;
41719;SDS011;27405;53.316;-6.294;2023-07-13T07:15:09;13.10;;;2.63;;
41719;SDS011;27405;53.316;-6.294;2023-07-13T07:17:35;12.82;;;2.88;;
41719;SDS011;27405;53.316;-6.294;2023-07-13T07:20:01;10.77;;;2.75;;
41719;SDS011;27405;53.316;-6.294;2023-07-13T07:22:28;13.88;;;2.65;;
41719;SDS011;27405;53.316;-6.294;2023-07-13T07:24:55;14.00;;;3.20;;
41719;SDS011;27405;53.316;-6.294;2023-07-13T07:27:21;15.02;;;3.03;;
41719;SDS011;27405;53.316;-6.294;2023-07-13T07:29:47;11.38;;;2.78;;
41719;SDS011;27405;53.316;-6.294;2023-07-13T07:32:13;15.25;;;3.22;;
41719;SDS011;27405;53.316;-6.294;2023-07-13T07:34:39;12.63;;;2.60;;
41719;SDS011;27405;53.316;-6.294;2023-07-13T07:37:04;11.90;;;2.50;;
41719;SDS011;27405;53.316;-6.294;2023-07-13T07:39:30;13.30;;;2.60;;
41719;SDS011;27405;53.316;-6.294;2023-07-13T07:41:56;13.70;;;2.80;;
41719;SDS011;27405;53.316;-6.294;2023-07-13T07:44:22;13.25;;;2.70;;
41719;SDS011;27405;53.316;-6.294;2023-07-13T07:46:48;14.20;;;2.80;;
41719;SDS011;27405;53.316;-6.294;2023-07-13T07:49:14;13.57;;;2.83;;
41719;SDS011;27405;53.316;-6.294;2023-07-13T07:51:40;9.70;;;2.60;;
41719;SDS011;27405;53.316;-6.294;2023-07-13T07:54:05;7.55;;;2.17;;
41719;SDS011;27405;53.316;-6.294;2023-07-13T07:56:31;9.68;;;2.60;;
41719;SDS011;27405;53.316;-6.294;2023-07-13T07:58:57;7.10;;;2.40;;
41719;SDS011;27405;53.316;-6.294;2023-07-13T08:01:23;9.60;;;2.80;;
41719;SDS011;27405;53.316;-6.294;2023-07-13T08:03:49;8.85;;;2.70;;
41719;SDS011;27405;53.316;-6.294;2023-07-13T08:06:14;5.32;;;2.33;;
41719;SDS011;27405;53.316;-6.294;2023-07-13T08:08:41;9.20;;;2.65;;
41719;SDS011;27405;53.316;-6.294;2023-07-13T08:11:07;11.75;;;2.60;;
41719;SDS011;27405;53.316;-6.294;2023-07-13T08:13:34;5.73;;;2.30;;
41719;SDS011;27405;53.316;-6.294;2023-07-13T08:16:00;6.72;;;2.50;;
41719;SDS011;27405;53.316;-6.294;2023-07-13T08:18:26;6.28;;;2.10;;
41719;SDS011;27405;53.316;-6.294;2023-07-13T08:20:55;8.10;;;2.40;;
41719;SDS011;27405;53.316;-6.294;2023-07-13T08:25:53;9.57;;;2.03;;
41719;SDS011;27405;53.316;-6.294;2023-07-13T08:28:19;5.90;;;2.03;;
41719;SDS011;27405;53.316;-6.294;2023-07-13T08:30:46;5.75;;;2.08;;
41719;SDS011;27405;53.316;-6.294;2023-07-13T08:33:16;6.75;;;2.33;;
41719;SDS011;27405;53.316;-6.294;2023-07-13T08:35:48;6.18;;;2.40;;
41719;SDS011;27405;53.316;-6.294;2023-07-13T08:38:15;9.48;;;2.50;;
41719;SDS011;27405;53.316;-6.294;2023-07-13T08:40:42;5.28;;;1.85;;
41719;SDS011;27405;53.316;-6.294;2023-07-13T08:43:18;5.00;;;1.90;;
41719;SDS011;27405;53.316;-6.294;2023-07-13T08:45:59;3.50;;;1.52;;
41719;SDS011;27405;53.316;-6.294;2023-07-13T08:48:39;5.60;;;2.17;;
41719;SDS011;27405;53.316;-6.294;2023-07-13T08:51:25;6.93;;;1.83;;
41719;SDS011;27405;53.316;-6.294;2023-07-13T08:54:32;4.88;;;2.15;;
41719;SDS011;27405;53.316;-6.294;2023-07-13T08:57:01;4.38;;;1.90;;
41719;SDS011;27405;53.316;-6.294;2023-07-13T08:59:36;6.50;;;2.00;;
41719;SDS011;27405;53.316;-6.294;2023-07-13T09:02:17;5.70;;;1.63;;
41719;SDS011;27405;53.316;-6.294;2023-07-13T09:05:10;4.68;;;1.80;;
41719;SDS011;27405;53.316;-6.294;2023-07-13T09:08:32;6.30;;;2.00;;
41719;SDS011;27405;53.316;-6.294;2023-07-13T09:11:00;6.30;;;2.10;;
41719;SDS011;27405;53.316;-6.294;2023-07-13T09:16:20;4.88;;;1.80;;
41719;SDS011;27405;53.316;-6.294;2023-07-13T09:18:48;4.45;;;1.95;;
41719;SDS011;27405;53.316;-6.294;2023-07-13T09:23:47;6.15;;;2.00;;
41719;SDS011;27405;53.316;-6.294;2023-07-13T09:26:18;5.18;;;2.20;;
41719;SDS011;27405;53.316;-6.294;2023-07-13T09:28:51;5.45;;;1.90;;
41719;SDS011;27405;53.316;-6.294;2023-07-13T09:31:30;4.10;;;2.05;;
41719;SDS011;27405;53.316;-6.294;2023-07-13T09:34:27;6.47;;;1.90;;
41719;SDS011;27405;53.316;-6.294;2023-07-13T09:36:55;5.43;;;2.10;;
41719;SDS011;27405;53.316;-6.294;2023-07-13T09:39:29;5.35;;;1.73;;
41719;SDS011;27405;53.316;-6.294;2023-07-13T09:44:39;5.65;;;1.65;;
41719;SDS011;27405;53.316;-6.294;2023-07-13T09:47:27;7.18;;;2.00;;
41719;SDS011;27405;53.316;-6.294;2023-07-13T09:49:58;5.05;;;1.77;;
41719;SDS011;27405;53.316;-6.294;2023-07-13T09:52:26;5.22;;;1.90;;
41719;SDS011;27405;53.316;-6.294;2023-07-13T09:54:55;4.63;;;1.98;;
41719;SDS011;27405;53.316;-6.294;2023-07-13T09:57:25;4.57;;;1.60;;
41719;SDS011;27405;53.316;-6.294;2023-07-13T09:59:53;4.25;;;1.65;;
41719;SDS011;27405;53.316;-6.294;2023-07-13T10:05:04;4.80;;;2.30;;
41719;SDS011;27405;53.316;-6.294;2023-07-13T10:07:34;7.50;;;2.10;;
41719;SDS011;27405;53.316;-6.294;2023-07-13T10:10:12;4.78;;;1.80;;
41719;SDS011;27405;53.316;-6.294;2023-07-13T10:12:40;5.07;;;1.80;;
41719;SDS011;27405;53.316;-6.294;2023-07-13T10:15:06;4.63;;;1.90;;
41719;SDS011;27405;53.316;-6.294;2023-07-13T10:17:40;5.00;;;2.22;;
41719;SDS011;27405;53.316;-6.294;2023-07-13T10:20:06;4.70;;;1.90;;
41719;SDS011;27405;53.316;-6.294;2023-07-13T10:22:39;6.50;;;2.20;;
41719;SDS011;27405;53.316;-6.294;2023-07-13T10:25:29;4.70;;;2.25;;
41719;SDS011;27405;53.316;-6.294;2023-07-13T10:28:02;3.47;;;2.00;;
41719;SDS011;27405;53.316;-6.294;2023-07-13T10:30:48;4.90;;;1.85;;
41719;SDS011;27405;53.316;-6.294;2023-07-13T10:33:14;5.50;;;1.80;;
41719;SDS011;27405;53.316;-6.294;2023-07-13T10:35:41;4.35;;;1.70;;
41719;SDS011;27405;53.316;-6.294;2023-07-13T10:38:13;5.40;;;1.92;;
41719;SDS011;27405;53.316;-6.294;2023-07-13T10:41:02;2.58;;;1.67;;
41719;SDS011;27405;53.316;-6.294;2023-07-13T10:46:07;6.82;;;2.20;;
41719;SDS011;27405;53.316;-6.294;2023-07-13T10:48:36;2.75;;;1.70;;
41719;SDS011;27405;53.316;-6.294;2023-07-13T10:51:04;5.03;;;1.80;;
41719;SDS011;27405;53.316;-6.294;2023-07-13T10:53:33;4.60;;;2.00;;
41719;SDS011;27405;53.316;-6.294;2023-07-13T10:58:37;8.30;;;1.98;;
41719;SDS011;27405;53.316;-6.294;2023-07-13T11:01:08;6.40;;;2.03;;
41719;SDS011;27405;53.316;-6.294;2023-07-13T11:03:54;5.97;;;2.05;;
41719;SDS011;27405;53.316;-6.294;2023-07-13T11:21:33;4.85;;;2.10;;
41719;SDS011;27405;53.316;-6.294;2023-07-13T11:24:04;4.07;;;1.88;;
41719;SDS011;27405;53.316;-6.294;2023-07-13T11:26:40;5.90;;;1.90;;
41719;SDS011;27405;53.316;-6.294;2023-07-13T11:31:43;6.25;;;2.40;;
41719;SDS011;27405;53.316;-6.294;2023-07-13T11:34:26;5.13;;;1.77;;
41719;SDS011;27405;53.316;-6.294;2023-07-13T11:36:55;5.18;;;1.88;;
41719;SDS011;27405;53.316;-6.294;2023-07-13T11:39:30;8.48;;;2.60;;
41719;SDS011;27405;53.316;-6.294;2023-07-13T11:41:57;5.22;;;2.30;;
41719;SDS011;27405;53.316;-6.294;2023-07-13T11:44:31;5.63;;;2.33;;
41719;SDS011;27405;53.316;-6.294;2023-07-13T11:46:59;7.68;;;2.75;;
41719;SDS011;27405;53.316;-6.294;2023-07-13T11:49:36;7.38;;;2.47;;
41719;SDS011;27405;53.316;-6.294;2023-07-13T11:52:12;4.95;;;2.17;;
41719;SDS011;27405;53.316;-6.294;2023-07-13T11:57:30;5.47;;;2.35;;
41719;SDS011;27405;53.316;-6.294;2023-07-13T11:59:59;6.05;;;2.55;;
41719;SDS011;27405;53.316;-6.294;2023-07-13T12:02:31;7.40;;;2.55;;
41719;SDS011;27405;53.316;-6.294;2023-07-13T12:05:01;6.22;;;2.08;;
41719;SDS011;27405;53.316;-6.294;2023-07-13T12:07:29;6.95;;;2.40;;
41719;SDS011;27405;53.316;-6.294;2023-07-13T12:10:03;8.18;;;2.75;;
41719;SDS011;27405;53.316;-6.294;2023-07-13T12:12:55;4.47;;;2.40;;
41719;SDS011;27405;53.316;-6.294;2023-07-13T12:15:23;4.32;;;2.42;;
41719;SDS011;27405;53.316;-6.294;2023-07-13T12:17:55;4.07;;;2.03;;
41719;SDS011;27405;53.316;-6.294;2023-07-13T12:22:58;4.20;;;2.15;;
41719;SDS011;27405;53.316;-6.294;2023-07-13T12:25:24;5.47;;;2.28;;
41719;SDS011;27405;53.316;-6.294;2023-07-13T12:27:51;7.03;;;2.78;;
41719;SDS011;27405;53.316;-6.294;2023-07-13T12:30:27;5.03;;;2.10;;
41719;SDS011;27405;53.316;-6.294;2023-07-13T12:32:59;7.63;;;2.50;;
41719;SDS011;27405;53.316;-6.294;2023-07-13T12:35:28;6.78;;;2.20;;
41719;SDS011;27405;53.316;-6.294;2023-07-13T12:37:57;5.30;;;2.30;;
41719;SDS011;27405;53.316;-6.294;2023-07-13T12:40:26;5.22;;;2.45;;
41719;SDS011;27405;53.316;-6.294;2023-07-13T12:42:59;7.70;;;2.45;;
41719;SDS011;27405;53.316;-6.294;2023-07-13T12:45:29;5.22;;;2.10;;
41719;SDS011;27405;53.316;-6.294;2023-07-13T12:48:02;4.18;;;2.28;;
41719;SDS011;27405;53.316;-6.294;2023-07-13T12:50:40;4.63;;;2.30;;
41719;SDS011;27405;53.316;-6.294;2023-07-13T12:53:19;9.85;;;2.70;;
41719;SDS011;27405;53.316;-6.294;2023-07-13T12:55:47;8.18;;;2.40;;
41719;SDS011;27405;53.316;-6.294;2023-07-13T12:58:26;6.93;;;3.03;;
41719;SDS011;27405;53.316;-6.294;2023-07-13T13:00:55;5.68;;;2.47;;
41719;SDS011;27405;53.316;-6.294;2023-07-13T13:08:34;6.35;;;2.40;;
41719;SDS011;27405;53.316;-6.294;2023-07-13T13:11:01;8.45;;;2.35;;
41719;SDS011;27405;53.316;-6.294;2023-07-13T13:13:27;5.75;;;2.50;;
41719;SDS011;27405;53.316;-6.294;2023-07-13T13:15:53;6.88;;;2.60;;
41719;SDS011;27405;53.316;-6.294;2023-07-13T13:18:20;7.03;;;2.20;;
41719;SDS011;27405;53.316;-6.294;2023-07-13T13:20:47;7.83;;;2.23;;
41719;SDS011;27405;53.316;-6.294;2023-07-13T13:23:16;4.97;;;2.30;;
41719;SDS011;27405;53.316;-6.294;2023-07-13T13:28:16;6.95;;;2.70;;
41719;SDS011;27405;53.316;-6.294;2023-07-13T13:30:44;8.30;;;2.63;;
41719;SDS011;27405;53.316;-6.294;2023-07-13T13:33:13;8.63;;;2.50;;
41719;SDS011;27405;53.316;-6.294;2023-07-13T13:35:41;5.88;;;2.60;;
41719;SDS011;27405;53.316;-6.294;2023-07-13T13:38:12;5.90;;;2.40;;
41719;SDS011;27405;53.316;-6.294;2023-07-13T13:40:42;5.70;;;2.20;;
41719;SDS011;27405;53.316;-6.294;2023-07-13T13:43:21;5.07;;;2.30;;
41719;SDS011;27405;53.316;-6.294;2023-07-13T13:45:51;6.95;;;2.45;;
41719;SDS011;27405;53.316;-6.294;2023-07-13T13:48:20;3.65;;;2.30;;
41719;SDS011;27405;53.316;-6.294;2023-07-13T13:50:55;4.45;;;1.98;;
41719;SDS011;27405;53.316;-6.294;2023-07-13T13:53:21;4.22;;;2.42;;
41719;SDS011;27405;53.316;-6.294;2023-07-13T13:55:48;4.28;;;2.30;;
41719;SDS011;27405;53.316;-6.294;2023-07-13T13:58:14;5.38;;;2.13;;
41719;SDS011;27405;53.316;-6.294;2023-07-13T14:00:40;6.97;;;2.30;;
41719;SDS011;27405;53.316;-6.294;2023-07-13T14:03:14;6.75;;;2.08;;
41719;SDS011;27405;53.316;-6.294;2023-07-13T14:05:44;3.50;;;2.22;;
41719;SDS011;27405;53.316;-6.294;2023-07-13T14:08:29;5.20;;;2.50;;
41719;SDS011;27405;53.316;-6.294;2023-07-13T14:10:55;10.10;;;2.40;;
41719;SDS011;27405;53.316;-6.294;2023-07-13T14:13:36;4.47;;;2.20;;
41719;SDS011;27405;53.316;-6.294;2023-07-13T14:16:12;7.93;;;2.45;;
41719;SDS011;27405;53.316;-6.294;2023-07-13T14:18:43;6.22;;;2.20;;
41719;SDS011;27405;53.316;-6.294;2023-07-13T14:21:20;5.88;;;2.40;;
41719;SDS011;27405;53.316;-6.294;2023-07-13T14:23:47;5.60;;;2.40;;
41719;SDS011;27405;53.316;-6.294;2023-07-13T14:26:20;4.30;;;2.08;;
41719;SDS011;27405;53.316;-6.294;2023-07-13T14:28:49;7.28;;;2.08;;
41719;SDS011;27405;53.316;-6.294;2023-07-13T14:31:17;3.70;;;2.00;;
41719;SDS011;27405;53.316;-6.294;2023-07-13T14:33:43;3.42;;;1.80;;
41719;SDS011;27405;53.316;-6.294;2023-07-13T14:39:16;4.43;;;2.05;;
41719;SDS011;27405;53.316;-6.294;2023-07-13T14:41:44;5.68;;;2.08;;
41719;SDS011;27405;53.316;-6.294;2023-07-13T14:44:11;3.55;;;1.75;;
41719;SDS011;27405;53.316;-6.294;2023-07-13T14:46:38;3.30;;;1.58;;
41719;SDS011;27405;53.316;-6.294;2023-07-13T14:49:13;2.80;;;1.70;;
41719;SDS011;27405;53.316;-6.294;2023-07-13T14:51:49;3.72;;;1.75;;
41719;SDS011;27405;53.316;-6.294;2023-07-13T14:54:15;7.10;;;1.90;;
41719;SDS011;27405;53.316;-6.294;2023-07-13T14:56:41;4.85;;;1.85;;
41719;SDS011;27405;53.316;-6.294;2023-07-13T14:59:06;2.63;;;1.85;;
41719;SDS011;27405;53.316;-6.294;2023-07-13T15:01:33;3.25;;;1.70;;
41719;SDS011;27405;53.316;-6.294;2023-07-13T15:04:00;3.42;;;1.70;;
41719;SDS011;27405;53.316;-6.294;2023-07-13T15:06:26;4.82;;;1.65;;
41719;SDS011;27405;53.316;-6.294;2023-07-13T15:08:52;3.55;;;1.58;;
41719;SDS011;27405;53.316;-6.294;2023-07-13T15:11:17;5.85;;;1.92;;
41719;SDS011;27405;53.316;-6.294;2023-07-13T15:13:43;3.92;;;1.75;;
41719;SDS011;27405;53.316;-6.294;2023-07-13T15:16:16;4.00;;;1.60;;
41719;SDS011;27405;53.316;-6.294;2023-07-13T15:18:47;3.88;;;1.50;;
41719;SDS011;27405;53.316;-6.294;2023-07-13T15:21:15;5.07;;;1.80;;
41719;SDS011;27405;53.316;-6.294;2023-07-13T15:23:47;3.85;;;1.77;;
41719;SDS011;27405;53.316;-6.294;2023-07-13T15:26:14;2.78;;;1.70;;
41719;SDS011;27405;53.316;-6.294;2023-07-13T15:28:42;2.85;;;1.70;;
41719;SDS011;27405;53.316;-6.294;2023-07-13T15:31:15;4.43;;;2.00;;
41719;SDS011;27405;53.316;-6.294;2023-07-13T15:33:55;2.97;;;1.65;;
41719;SDS011;27405;53.316;-6.294;2023-07-13T15:36:22;4.43;;;1.67;;
41719;SDS011;27405;53.316;-6.294;2023-07-13T15:41:17;3.92;;;2.00;;